sensor_id;sensor_type;location;lat;lon;timestamp;temperature;humidity
29939;DHT22;16799;50.844;5.304;2023-04-24T00:01:47;9.50;99.90
29939;DHT22;16799;50.844;5.304;2023-04-24T00:04:13;9.50;99.90
29939;DHT22;16799;50.844;5.304;2023-04-24T00:06:39;9.50;99.90
29939;DHT22;16799;50.844;5.304;2023-04-24T00:09:08;9.40;99.90
29939;DHT22;16799;50.844;5.304;2023-04-24T00:11:36;9.50;99.90
29939;DHT22;16799;50.844;5.304;2023-04-24T00:14:02;9.40;99.90
29939;DHT22;16799;50.844;5.304;2023-04-24T00:16:27;9.40;99.90
29939;DHT22;16799;50.844;5.304;2023-04-24T00:18:53;9.40;99.90
29939;DHT22;16799;50.844;5.304;2023-04-24T00:21:19;9.30;99.90
29939;DHT22;16799;50.844;5.304;2023-04-24T00:23:46;9.40;99.90
29939;DHT22;16799;50.844;5.304;2023-04-24T00:26:12;9.40;99.90
29939;DHT22;16799;50.844;5.304;2023-04-24T00:28:38;9.40;99.90
29939;DHT22;16799;50.844;5.304;2023-04-24T00:31:03;9.30;99.90
29939;DHT22;16799;50.844;5.304;2023-04-24T00:33:29;9.30;99.90
29939;DHT22;16799;50.844;5.304;2023-04-24T00:35:55;9.30;99.90
29939;DHT22;16799;50.844;5.304;2023-04-24T00:38:20;9.30;99.90
29939;DHT22;16799;50.844;5.304;2023-04-24T00:40:48;9.40;99.90
29939;DHT22;16799;50.844;5.304;2023-04-24T00:43:15;9.40;99.90
29939;DHT22;16799;50.844;5.304;2023-04-24T00:45:41;9.30;99.90
29939;DHT22;16799;50.844;5.304;2023-04-24T00:48:07;9.30;99.90
29939;DHT22;16799;50.844;5.304;2023-04-24T00:50:35;9.30;99.90
29939;DHT22;16799;50.844;5.304;2023-04-24T00:53:01;9.30;99.90
29939;DHT22;16799;50.844;5.304;2023-04-24T00:55:26;9.30;99.90
29939;DHT22;16799;50.844;5.304;2023-04-24T00:57:52;9.30;99.90
29939;DHT22;16799;50.844;5.304;2023-04-24T01:00:18;9.30;99.90
29939;DHT22;16799;50.844;5.304;2023-04-24T01:02:44;9.30;99.90
29939;DHT22;16799;50.844;5.304;2023-04-24T01:05:15;9.30;99.90
29939;DHT22;16799;50.844;5.304;2023-04-24T01:07:41;9.30;99.90
29939;DHT22;16799;50.844;5.304;2023-04-24T01:10:11;9.30;99.90
29939;DHT22;16799;50.844;5.304;2023-04-24T01:12:37;9.30;99.90
29939;DHT22;16799;50.844;5.304;2023-04-24T01:15:03;9.30;99.90
29939;DHT22;16799;50.844;5.304;2023-04-24T01:17:29;9.30;99.90
29939;DHT22;16799;50.844;5.304;2023-04-24T01:19:55;9.30;99.90
29939;DHT22;16799;50.844;5.304;2023-04-24T01:22:22;9.30;99.90
29939;DHT22;16799;50.844;5.304;2023-04-24T01:24:48;9.30;99.90
29939;DHT22;16799;50.844;5.304;2023-04-24T01:27:14;9.30;99.90
29939;DHT22;16799;50.844;5.304;2023-04-24T01:29:40;9.30;99.90
29939;DHT22;16799;50.844;5.304;2023-04-24T01:32:06;9.20;99.90
29939;DHT22;16799;50.844;5.304;2023-04-24T01:34:33;9.30;99.90
29939;DHT22;16799;50.844;5.304;2023-04-24T01:36:59;9.30;99.90
29939;DHT22;16799;50.844;5.304;2023-04-24T01:39:24;9.30;99.90
29939;DHT22;16799;50.844;5.304;2023-04-24T01:41:52;9.30;99.90
29939;DHT22;16799;50.844;5.304;2023-04-24T01:44:18;9.30;99.90
29939;DHT22;16799;50.844;5.304;2023-04-24T01:46:44;9.30;99.90
29939;DHT22;16799;50.844;5.304;2023-04-24T01:49:10;9.30;99.90
29939;DHT22;16799;50.844;5.304;2023-04-24T01:51:36;9.20;99.90
29939;DHT22;16799;50.844;5.304;2023-04-24T01:54:01;9.20;99.90
29939;DHT22;16799;50.844;5.304;2023-04-24T01:56:29;9.10;99.90
29939;DHT22;16799;50.844;5.304;2023-04-24T01:58:56;9.10;99.90
29939;DHT22;16799;50.844;5.304;2023-04-24T02:01:23;9.00;99.90
29939;DHT22;16799;50.844;5.304;2023-04-24T02:03:49;9.00;99.90
29939;DHT22;16799;50.844;5.304;2023-04-24T02:06:15;9.00;99.90
29939;DHT22;16799;50.844;5.304;2023-04-24T02:08:40;9.00;99.90
29939;DHT22;16799;50.844;5.304;2023-04-24T02:11:06;9.10;99.90
29939;DHT22;16799;50.844;5.304;2023-04-24T02:13:32;9.10;99.90
29939;DHT22;16799;50.844;5.304;2023-04-24T02:16:00;9.10;99.90
29939;DHT22;16799;50.844;5.304;2023-04-24T02:18:26;9.10;99.90
29939;DHT22;16799;50.844;5.304;2023-04-24T02:20:52;9.10;99.90
29939;DHT22;16799;50.844;5.304;2023-04-24T02:23:17;9.00;99.90
29939;DHT22;16799;50.844;5.304;2023-04-24T02:25:43;9.00;99.90
29939;DHT22;16799;50.844;5.304;2023-04-24T02:28:09;9.00;99.90
29939;DHT22;16799;50.844;5.304;2023-04-24T02:30:34;9.00;99.90
29939;DHT22;16799;50.844;5.304;2023-04-24T02:33:00;9.00;99.90
29939;DHT22;16799;50.844;5.304;2023-04-24T02:35:25;9.00;99.90
29939;DHT22;16799;50.844;5.304;2023-04-24T02:37:51;8.90;99.90
29939;DHT22;16799;50.844;5.304;2023-04-24T02:40:17;8.90;99.90
29939;DHT22;16799;50.844;5.304;2023-04-24T02:42:42;8.80;99.90
29939;DHT22;16799;50.844;5.304;2023-04-24T02:45:08;8.80;99.90
29939;DHT22;16799;50.844;5.304;2023-04-24T02:47:34;8.60;99.90
29939;DHT22;16799;50.844;5.304;2023-04-24T02:50:01;8.50;99.90
29939;DHT22;16799;50.844;5.304;2023-04-24T02:52:26;8.40;99.90
29939;DHT22;16799;50.844;5.304;2023-04-24T02:54:52;8.30;99.90
29939;DHT22;16799;50.844;5.304;2023-04-24T02:57:19;8.30;99.90
29939;DHT22;16799;50.844;5.304;2023-04-24T02:59:44;8.20;99.90
29939;DHT22;16799;50.844;5.304;2023-04-24T03:02:10;8.20;99.90
29939;DHT22;16799;50.844;5.304;2023-04-24T03:04:35;8.20;99.90
29939;DHT22;16799;50.844;5.304;2023-04-24T03:07:01;8.20;99.90
29939;DHT22;16799;50.844;5.304;2023-04-24T03:09:27;8.10;99.90
29939;DHT22;16799;50.844;5.304;2023-04-24T03:11:53;8.10;99.90
29939;DHT22;16799;50.844;5.304;2023-04-24T03:14:18;8.10;99.90
29939;DHT22;16799;50.844;5.304;2023-04-24T03:16:44;8.20;99.90
29939;DHT22;16799;50.844;5.304;2023-04-24T03:19:10;8.20;99.90
29939;DHT22;16799;50.844;5.304;2023-04-24T03:21:36;8.20;99.90
29939;DHT22;16799;50.844;5.304;2023-04-24T03:24:09;8.20;99.90
29939;DHT22;16799;50.844;5.304;2023-04-24T03:26:37;8.20;99.90
29939;DHT22;16799;50.844;5.304;2023-04-24T03:29:03;8.20;99.90
29939;DHT22;16799;50.844;5.304;2023-04-24T03:31:28;8.10;99.90
29939;DHT22;16799;50.844;5.304;2023-04-24T03:33:54;8.20;99.90
29939;DHT22;16799;50.844;5.304;2023-04-24T03:36:20;8.20;99.90
29939;DHT22;16799;50.844;5.304;2023-04-24T03:38:46;8.20;99.90
29939;DHT22;16799;50.844;5.304;2023-04-24T03:41:11;8.20;99.90
29939;DHT22;16799;50.844;5.304;2023-04-24T03:43:37;8.20;99.90
29939;DHT22;16799;50.844;5.304;2023-04-24T03:46:03;8.20;99.90
29939;DHT22;16799;50.844;5.304;2023-04-24T03:48:29;8.20;99.90
29939;DHT22;16799;50.844;5.304;2023-04-24T03:50:55;8.20;99.90
29939;DHT22;16799;50.844;5.304;2023-04-24T03:53:21;8.20;99.90
29939;DHT22;16799;50.844;5.304;2023-04-24T03:55:47;8.20;99.90
29939;DHT22;16799;50.844;5.304;2023-04-24T03:58:12;8.10;99.90
29939;DHT22;16799;50.844;5.304;2023-04-24T04:00:41;8.10;99.90
29939;DHT22;16799;50.844;5.304;2023-04-24T04:03:06;8.10;99.90
29939;DHT22;16799;50.844;5.304;2023-04-24T04:05:32;8.10;99.90
29939;DHT22;16799;50.844;5.304;2023-04-24T04:07:58;8.10;99.90
29939;DHT22;16799;50.844;5.304;2023-04-24T04:10:23;8.10;99.90
29939;DHT22;16799;50.844;5.304;2023-04-24T04:12:49;8.00;99.90
29939;DHT22;16799;50.844;5.304;2023-04-24T04:15:15;8.10;99.90
29939;DHT22;16799;50.844;5.304;2023-04-24T04:17:40;8.10;99.90
29939;DHT22;16799;50.844;5.304;2023-04-24T04:20:07;8.00;99.90
29939;DHT22;16799;50.844;5.304;2023-04-24T04:22:36;8.10;99.90
29939;DHT22;16799;50.844;5.304;2023-04-24T04:25:02;8.00;99.90
29939;DHT22;16799;50.844;5.304;2023-04-24T04:27:28;8.00;99.90
29939;DHT22;16799;50.844;5.304;2023-04-24T04:29:58;8.00;99.90
29939;DHT22;16799;50.844;5.304;2023-04-24T04:32:24;8.00;99.90
29939;DHT22;16799;50.844;5.304;2023-04-24T04:34:50;8.00;99.90
29939;DHT22;16799;50.844;5.304;2023-04-24T04:37:18;7.90;99.90
29939;DHT22;16799;50.844;5.304;2023-04-24T04:39:44;8.00;99.90
29939;DHT22;16799;50.844;5.304;2023-04-24T04:42:10;7.90;99.90
29939;DHT22;16799;50.844;5.304;2023-04-24T04:44:35;7.90;99.90
29939;DHT22;16799;50.844;5.304;2023-04-24T04:47:02;7.90;99.90
29939;DHT22;16799;50.844;5.304;2023-04-24T04:49:31;7.90;99.90
29939;DHT22;16799;50.844;5.304;2023-04-24T04:51:57;7.90;99.90
29939;DHT22;16799;50.844;5.304;2023-04-24T04:54:23;7.80;99.90
29939;DHT22;16799;50.844;5.304;2023-04-24T04:56:52;7.80;99.90
29939;DHT22;16799;50.844;5.304;2023-04-24T04:59:17;7.80;99.90
29939;DHT22;16799;50.844;5.304;2023-04-24T05:01:43;7.80;99.90
29939;DHT22;16799;50.844;5.304;2023-04-24T05:04:09;7.80;99.90
29939;DHT22;16799;50.844;5.304;2023-04-24T05:06:34;7.80;99.90
29939;DHT22;16799;50.844;5.304;2023-04-24T05:09:00;7.90;99.90
29939;DHT22;16799;50.844;5.304;2023-04-24T05:11:26;7.80;99.90
29939;DHT22;16799;50.844;5.304;2023-04-24T05:13:51;7.90;99.90
29939;DHT22;16799;50.844;5.304;2023-04-24T05:16:17;7.90;99.90
29939;DHT22;16799;50.844;5.304;2023-04-24T05:18:43;7.90;99.90
29939;DHT22;16799;50.844;5.304;2023-04-24T05:21:08;7.90;99.90
29939;DHT22;16799;50.844;5.304;2023-04-24T05:23:34;7.90;99.90
29939;DHT22;16799;50.844;5.304;2023-04-24T05:26:00;7.90;99.90
29939;DHT22;16799;50.844;5.304;2023-04-24T05:28:25;7.90;99.90
29939;DHT22;16799;50.844;5.304;2023-04-24T05:30:54;7.90;99.90
29939;DHT22;16799;50.844;5.304;2023-04-24T05:33:21;7.90;99.90
29939;DHT22;16799;50.844;5.304;2023-04-24T05:35:48;7.90;99.90
29939;DHT22;16799;50.844;5.304;2023-04-24T05:38:14;7.90;99.90
29939;DHT22;16799;50.844;5.304;2023-04-24T05:40:43;7.90;99.90
29939;DHT22;16799;50.844;5.304;2023-04-24T05:43:08;7.90;99.90
29939;DHT22;16799;50.844;5.304;2023-04-24T05:45:34;7.90;99.90
29939;DHT22;16799;50.844;5.304;2023-04-24T05:48:02;7.90;99.90
29939;DHT22;16799;50.844;5.304;2023-04-24T05:50:27;7.90;99.90
29939;DHT22;16799;50.844;5.304;2023-04-24T05:52:53;7.90;99.90
29939;DHT22;16799;50.844;5.304;2023-04-24T05:55:19;7.90;99.90
29939;DHT22;16799;50.844;5.304;2023-04-24T05:57:45;7.90;99.90
29939;DHT22;16799;50.844;5.304;2023-04-24T06:00:11;7.90;99.90
29939;DHT22;16799;50.844;5.304;2023-04-24T06:02:41;7.90;99.90
29939;DHT22;16799;50.844;5.304;2023-04-24T06:05:07;7.90;99.90
29939;DHT22;16799;50.844;5.304;2023-04-24T06:07:33;7.90;99.90
29939;DHT22;16799;50.844;5.304;2023-04-24T06:09:59;7.90;99.90
29939;DHT22;16799;50.844;5.304;2023-04-24T06:12:25;7.90;99.90
29939;DHT22;16799;50.844;5.304;2023-04-24T06:14:51;7.90;99.90
29939;DHT22;16799;50.844;5.304;2023-04-24T06:17:17;7.80;99.90
29939;DHT22;16799;50.844;5.304;2023-04-24T06:19:43;7.90;99.90
29939;DHT22;16799;50.844;5.304;2023-04-24T06:22:08;7.80;99.90
29939;DHT22;16799;50.844;5.304;2023-04-24T06:24:34;7.90;99.90
29939;DHT22;16799;50.844;5.304;2023-04-24T06:27:00;7.80;99.90
29939;DHT22;16799;50.844;5.304;2023-04-24T06:29:27;7.80;99.90
29939;DHT22;16799;50.844;5.304;2023-04-24T06:31:52;7.80;99.90
29939;DHT22;16799;50.844;5.304;2023-04-24T06:34:18;7.80;99.90
29939;DHT22;16799;50.844;5.304;2023-04-24T06:36:44;7.80;99.90
29939;DHT22;16799;50.844;5.304;2023-04-24T06:39:10;7.70;99.90
29939;DHT22;16799;50.844;5.304;2023-04-24T06:41:35;7.70;99.90
29939;DHT22;16799;50.844;5.304;2023-04-24T06:44:01;7.70;99.90
29939;DHT22;16799;50.844;5.304;2023-04-24T06:46:27;7.60;99.90
29939;DHT22;16799;50.844;5.304;2023-04-24T06:48:53;7.60;99.90
29939;DHT22;16799;50.844;5.304;2023-04-24T06:51:25;7.60;99.90
29939;DHT22;16799;50.844;5.304;2023-04-24T06:53:54;7.60;99.90
29939;DHT22;16799;50.844;5.304;2023-04-24T06:56:21;7.60;99.90
29939;DHT22;16799;50.844;5.304;2023-04-24T06:58:47;7.60;99.90
29939;DHT22;16799;50.844;5.304;2023-04-24T07:01:13;7.60;99.90
29939;DHT22;16799;50.844;5.304;2023-04-24T07:03:39;7.70;99.90
29939;DHT22;16799;50.844;5.304;2023-04-24T07:06:05;7.70;99.90
29939;DHT22;16799;50.844;5.304;2023-04-24T07:08:31;7.70;99.90
29939;DHT22;16799;50.844;5.304;2023-04-24T07:10:58;7.70;99.90
29939;DHT22;16799;50.844;5.304;2023-04-24T07:13:24;7.70;99.90
29939;DHT22;16799;50.844;5.304;2023-04-24T07:15:50;7.70;99.90
29939;DHT22;16799;50.844;5.304;2023-04-24T07:18:17;7.70;99.90
29939;DHT22;16799;50.844;5.304;2023-04-24T07:20:43;7.80;99.90
29939;DHT22;16799;50.844;5.304;2023-04-24T07:23:10;7.80;99.90
29939;DHT22;16799;50.844;5.304;2023-04-24T07:25:35;7.90;99.90
29939;DHT22;16799;50.844;5.304;2023-04-24T07:28:01;7.90;99.90
29939;DHT22;16799;50.844;5.304;2023-04-24T07:30:27;7.90;99.90
29939;DHT22;16799;50.844;5.304;2023-04-24T07:32:54;7.90;99.90
29939;DHT22;16799;50.844;5.304;2023-04-24T07:35:21;7.90;99.90
29939;DHT22;16799;50.844;5.304;2023-04-24T07:37:46;7.90;99.90
29939;DHT22;16799;50.844;5.304;2023-04-24T07:40:15;7.90;99.90
29939;DHT22;16799;50.844;5.304;2023-04-24T07:42:41;7.90;99.90
29939;DHT22;16799;50.844;5.304;2023-04-24T07:45:07;7.90;99.90
29939;DHT22;16799;50.844;5.304;2023-04-24T07:47:33;7.80;99.90
29939;DHT22;16799;50.844;5.304;2023-04-24T07:49:59;7.80;99.90
29939;DHT22;16799;50.844;5.304;2023-04-24T07:52:25;7.90;99.90
29939;DHT22;16799;50.844;5.304;2023-04-24T07:54:50;7.90;99.90
29939;DHT22;16799;50.844;5.304;2023-04-24T07:57:18;7.90;99.90
29939;DHT22;16799;50.844;5.304;2023-04-24T07:59:44;8.00;99.90
29939;DHT22;16799;50.844;5.304;2023-04-24T08:02:09;7.90;99.90
29939;DHT22;16799;50.844;5.304;2023-04-24T08:04:35;8.00;99.90
29939;DHT22;16799;50.844;5.304;2023-04-24T08:07:00;8.00;99.90
29939;DHT22;16799;50.844;5.304;2023-04-24T08:09:26;8.00;99.90
29939;DHT22;16799;50.844;5.304;2023-04-24T08:11:52;8.10;99.90
29939;DHT22;16799;50.844;5.304;2023-04-24T08:14:18;8.20;99.90
29939;DHT22;16799;50.844;5.304;2023-04-24T08:16:44;8.10;99.90
29939;DHT22;16799;50.844;5.304;2023-04-24T08:19:10;8.10;99.90
29939;DHT22;16799;50.844;5.304;2023-04-24T08:21:35;8.10;99.90
29939;DHT22;16799;50.844;5.304;2023-04-24T08:24:01;8.10;99.90
29939;DHT22;16799;50.844;5.304;2023-04-24T08:26:30;8.20;99.90
29939;DHT22;16799;50.844;5.304;2023-04-24T08:28:56;8.30;99.90
29939;DHT22;16799;50.844;5.304;2023-04-24T08:31:21;8.40;99.90
29939;DHT22;16799;50.844;5.304;2023-04-24T08:33:48;8.50;99.90
29939;DHT22;16799;50.844;5.304;2023-04-24T08:36:13;8.60;99.90
29939;DHT22;16799;50.844;5.304;2023-04-24T08:38:39;8.50;99.90
29939;DHT22;16799;50.844;5.304;2023-04-24T08:41:06;8.50;99.90
29939;DHT22;16799;50.844;5.304;2023-04-24T08:43:33;8.30;99.90
29939;DHT22;16799;50.844;5.304;2023-04-24T08:46:03;8.20;99.90
29939;DHT22;16799;50.844;5.304;2023-04-24T08:48:29;8.20;99.90
29939;DHT22;16799;50.844;5.304;2023-04-24T08:50:57;8.20;99.90
29939;DHT22;16799;50.844;5.304;2023-04-24T08:53:24;8.30;99.90
29939;DHT22;16799;50.844;5.304;2023-04-24T08:55:50;8.30;99.90
29939;DHT22;16799;50.844;5.304;2023-04-24T08:58:17;8.30;99.90
29939;DHT22;16799;50.844;5.304;2023-04-24T09:00:43;8.40;99.90
29939;DHT22;16799;50.844;5.304;2023-04-24T09:03:13;8.40;99.90
29939;DHT22;16799;50.844;5.304;2023-04-24T09:05:42;8.40;99.90
29939;DHT22;16799;50.844;5.304;2023-04-24T09:08:12;8.40;99.90
29939;DHT22;16799;50.844;5.304;2023-04-24T09:10:39;8.50;99.90
29939;DHT22;16799;50.844;5.304;2023-04-24T09:13:05;8.40;99.90
29939;DHT22;16799;50.844;5.304;2023-04-24T09:15:31;8.50;99.90
29939;DHT22;16799;50.844;5.304;2023-04-24T09:17:57;8.60;99.90
29939;DHT22;16799;50.844;5.304;2023-04-24T09:20:23;8.70;99.90
29939;DHT22;16799;50.844;5.304;2023-04-24T09:22:54;8.90;99.90
29939;DHT22;16799;50.844;5.304;2023-04-24T09:25:20;9.00;99.90
29939;DHT22;16799;50.844;5.304;2023-04-24T09:27:46;9.20;99.90
29939;DHT22;16799;50.844;5.304;2023-04-24T09:30:13;9.30;99.90
29939;DHT22;16799;50.844;5.304;2023-04-24T09:32:39;9.40;99.90
29939;DHT22;16799;50.844;5.304;2023-04-24T09:35:07;9.60;99.90
29939;DHT22;16799;50.844;5.304;2023-04-24T09:37:46;10.00;99.90
29939;DHT22;16799;50.844;5.304;2023-04-24T09:40:20;10.20;99.90
29939;DHT22;16799;50.844;5.304;2023-04-24T09:42:54;10.30;99.90
29939;DHT22;16799;50.844;5.304;2023-04-24T09:45:20;10.30;99.90
29939;DHT22;16799;50.844;5.304;2023-04-24T09:47:46;10.50;99.90
29939;DHT22;16799;50.844;5.304;2023-04-24T09:50:16;10.60;99.90
29939;DHT22;16799;50.844;5.304;2023-04-24T09:52:57;11.10;99.90
29939;DHT22;16799;50.844;5.304;2023-04-24T09:55:24;11.20;99.90
29939;DHT22;16799;50.844;5.304;2023-04-24T09:57:52;11.00;99.90
29939;DHT22;16799;50.844;5.304;2023-04-24T10:00:22;10.80;99.90
29939;DHT22;16799;50.844;5.304;2023-04-24T10:03:14;10.40;99.90
29939;DHT22;16799;50.844;5.304;2023-04-24T10:05:44;10.10;99.90
29939;DHT22;16799;50.844;5.304;2023-04-24T10:08:12;9.80;99.90
29939;DHT22;16799;50.844;5.304;2023-04-24T10:10:42;9.70;99.90
29939;DHT22;16799;50.844;5.304;2023-04-24T10:13:10;9.70;99.90
29939;DHT22;16799;50.844;5.304;2023-04-24T10:15:37;9.70;99.90
29939;DHT22;16799;50.844;5.304;2023-04-24T10:18:04;9.90;99.90
29939;DHT22;16799;50.844;5.304;2023-04-24T10:20:32;10.50;99.90
29939;DHT22;16799;50.844;5.304;2023-04-24T10:22:59;10.80;99.90
29939;DHT22;16799;50.844;5.304;2023-04-24T10:25:27;11.30;99.90
29939;DHT22;16799;50.844;5.304;2023-04-24T10:27:54;11.60;99.90
29939;DHT22;16799;50.844;5.304;2023-04-24T10:30:26;11.20;99.90
29939;DHT22;16799;50.844;5.304;2023-04-24T10:32:52;10.80;99.90
29939;DHT22;16799;50.844;5.304;2023-04-24T10:35:18;10.60;99.90
29939;DHT22;16799;50.844;5.304;2023-04-24T10:38:12;10.50;99.90
29939;DHT22;16799;50.844;5.304;2023-04-24T10:40:38;10.40;99.90
29939;DHT22;16799;50.844;5.304;2023-04-24T10:43:08;10.30;99.90
29939;DHT22;16799;50.844;5.304;2023-04-24T10:45:38;10.30;99.90
29939;DHT22;16799;50.844;5.304;2023-04-24T10:48:10;10.40;99.90
29939;DHT22;16799;50.844;5.304;2023-04-24T10:50:52;10.60;99.90
29939;DHT22;16799;50.844;5.304;2023-04-24T10:53:20;11.10;99.90
29939;DHT22;16799;50.844;5.304;2023-04-24T10:55:47;12.00;99.90
29939;DHT22;16799;50.844;5.304;2023-04-24T10:58:13;12.80;99.90
29939;DHT22;16799;50.844;5.304;2023-04-24T11:00:41;13.60;99.90
29939;DHT22;16799;50.844;5.304;2023-04-24T11:03:28;13.80;99.90
29939;DHT22;16799;50.844;5.304;2023-04-24T11:08:43;13.90;99.90
29939;DHT22;16799;50.844;5.304;2023-04-24T11:11:12;13.20;99.90
29939;DHT22;16799;50.844;5.304;2023-04-24T11:19:06;11.60;99.90
29939;DHT22;16799;50.844;5.304;2023-04-24T11:32:19;11.90;99.90
29939;DHT22;16799;50.844;5.304;2023-04-24T11:34:49;11.80;99.90
29939;DHT22;16799;50.844;5.304;2023-04-24T11:37:16;11.90;99.90
29939;DHT22;16799;50.844;5.304;2023-04-24T11:39:42;11.90;99.90
29939;DHT22;16799;50.844;5.304;2023-04-24T11:42:09;12.00;99.90
29939;DHT22;16799;50.844;5.304;2023-04-24T11:44:35;12.00;99.90
29939;DHT22;16799;50.844;5.304;2023-04-24T11:47:06;11.80;99.90
29939;DHT22;16799;50.844;5.304;2023-04-24T11:49:33;11.50;99.90
29939;DHT22;16799;50.844;5.304;2023-04-24T11:52:02;11.50;99.90
29939;DHT22;16799;50.844;5.304;2023-04-24T11:54:27;11.40;99.90
29939;DHT22;16799;50.844;5.304;2023-04-24T11:56:53;11.20;99.90
29939;DHT22;16799;50.844;5.304;2023-04-24T11:59:19;11.10;99.90
29939;DHT22;16799;50.844;5.304;2023-04-24T12:01:49;11.10;99.90
29939;DHT22;16799;50.844;5.304;2023-04-24T12:04:16;11.30;99.90
29939;DHT22;16799;50.844;5.304;2023-04-24T12:09:26;11.70;99.90
29939;DHT22;16799;50.844;5.304;2023-04-24T12:11:58;12.10;99.90
29939;DHT22;16799;50.844;5.304;2023-04-24T12:14:24;12.50;99.90
29939;DHT22;16799;50.844;5.304;2023-04-24T12:16:50;12.40;99.90
29939;DHT22;16799;50.844;5.304;2023-04-24T12:19:22;12.50;99.60
29939;DHT22;16799;50.844;5.304;2023-04-24T12:22:08;12.60;99.90
29939;DHT22;16799;50.844;5.304;2023-04-24T12:24:34;12.70;99.90
29939;DHT22;16799;50.844;5.304;2023-04-24T12:26:59;12.50;99.90
29939;DHT22;16799;50.844;5.304;2023-04-24T12:29:26;12.30;99.90
29939;DHT22;16799;50.844;5.304;2023-04-24T12:31:52;12.20;98.20
29939;DHT22;16799;50.844;5.304;2023-04-24T12:34:22;12.30;99.90
29939;DHT22;16799;50.844;5.304;2023-04-24T12:36:49;12.40;98.20
29939;DHT22;16799;50.844;5.304;2023-04-24T12:39:18;12.20;97.90
29939;DHT22;16799;50.844;5.304;2023-04-24T12:41:55;13.10;98.20
29939;DHT22;16799;50.844;5.304;2023-04-24T12:44:31;14.50;96.40
29939;DHT22;16799;50.844;5.304;2023-04-24T12:47:02;14.90;94.30
29939;DHT22;16799;50.844;5.304;2023-04-24T12:49:30;14.70;93.50
29939;DHT22;16799;50.844;5.304;2023-04-24T12:51:57;14.10;95.70
29939;DHT22;16799;50.844;5.304;2023-04-24T12:54:22;13.50;95.60
29939;DHT22;16799;50.844;5.304;2023-04-24T12:56:48;13.10;96.40
29939;DHT22;16799;50.844;5.304;2023-04-24T12:59:14;13.10;98.50
29939;DHT22;16799;50.844;5.304;2023-04-24T13:01:40;14.30;95.30
29939;DHT22;16799;50.844;5.304;2023-04-24T13:04:06;15.00;94.50
29939;DHT22;16799;50.844;5.304;2023-04-24T13:06:31;14.70;92.70
29939;DHT22;16799;50.844;5.304;2023-04-24T13:08:57;15.00;94.80
29939;DHT22;16799;50.844;5.304;2023-04-24T13:11:23;15.00;91.60
29939;DHT22;16799;50.844;5.304;2023-04-24T13:13:50;14.00;93.50
29939;DHT22;16799;50.844;5.304;2023-04-24T13:16:16;13.30;95.10
29939;DHT22;16799;50.844;5.304;2023-04-24T13:18:41;13.30;95.90
29939;DHT22;16799;50.844;5.304;2023-04-24T13:21:07;13.90;94.40
29939;DHT22;16799;50.844;5.304;2023-04-24T13:23:32;14.20;93.50
29939;DHT22;16799;50.844;5.304;2023-04-24T13:25:58;14.30;93.10
29939;DHT22;16799;50.844;5.304;2023-04-24T13:28:24;14.30;94.80
29939;DHT22;16799;50.844;5.304;2023-04-24T13:30:51;15.50;91.30
29939;DHT22;16799;50.844;5.304;2023-04-24T13:33:16;15.90;91.30
29939;DHT22;16799;50.844;5.304;2023-04-24T13:35:42;16.10;87.40
29939;DHT22;16799;50.844;5.304;2023-04-24T13:38:08;16.50;87.70
29939;DHT22;16799;50.844;5.304;2023-04-24T13:40:33;15.30;90.40
29939;DHT22;16799;50.844;5.304;2023-04-24T13:42:59;15.70;88.50
29939;DHT22;16799;50.844;5.304;2023-04-24T13:45:26;15.10;90.20
29939;DHT22;16799;50.844;5.304;2023-04-24T13:47:52;14.70;92.50
29939;DHT22;16799;50.844;5.304;2023-04-24T13:50:19;14.60;91.80
29939;DHT22;16799;50.844;5.304;2023-04-24T13:52:44;14.90;90.70
29939;DHT22;16799;50.844;5.304;2023-04-24T13:55:10;14.80;92.90
29939;DHT22;16799;50.844;5.304;2023-04-24T13:57:36;14.50;91.40
29939;DHT22;16799;50.844;5.304;2023-04-24T14:00:02;14.10;92.50
29939;DHT22;16799;50.844;5.304;2023-04-24T14:02:29;13.60;93.20
29939;DHT22;16799;50.844;5.304;2023-04-24T14:04:55;13.90;92.60
29939;DHT22;16799;50.844;5.304;2023-04-24T14:07:21;14.10;93.00
29939;DHT22;16799;50.844;5.304;2023-04-24T14:09:46;14.90;90.70
29939;DHT22;16799;50.844;5.304;2023-04-24T14:12:12;15.10;88.90
29939;DHT22;16799;50.844;5.304;2023-04-24T14:14:39;14.90;89.30
29939;DHT22;16799;50.844;5.304;2023-04-24T14:17:05;15.40;90.60
29939;DHT22;16799;50.844;5.304;2023-04-24T14:19:31;14.80;89.10
29939;DHT22;16799;50.844;5.304;2023-04-24T14:21:56;14.60;91.80
29939;DHT22;16799;50.844;5.304;2023-04-24T14:24:23;14.50;90.00
29939;DHT22;16799;50.844;5.304;2023-04-24T14:26:49;14.40;90.20
29939;DHT22;16799;50.844;5.304;2023-04-24T14:29:15;14.10;90.20
29939;DHT22;16799;50.844;5.304;2023-04-24T14:31:42;14.30;92.10
29939;DHT22;16799;50.844;5.304;2023-04-24T14:34:07;14.20;92.60
29939;DHT22;16799;50.844;5.304;2023-04-24T14:36:33;14.10;92.20
29939;DHT22;16799;50.844;5.304;2023-04-24T14:38:59;14.30;93.70
29939;DHT22;16799;50.844;5.304;2023-04-24T14:41:25;14.10;93.10
29939;DHT22;16799;50.844;5.304;2023-04-24T14:43:50;14.00;93.10
29939;DHT22;16799;50.844;5.304;2023-04-24T14:46:16;13.70;92.50
29939;DHT22;16799;50.844;5.304;2023-04-24T14:48:41;13.90;93.00
29939;DHT22;16799;50.844;5.304;2023-04-24T14:51:07;14.20;92.30
29939;DHT22;16799;50.844;5.304;2023-04-24T14:53:33;14.50;92.60
29939;DHT22;16799;50.844;5.304;2023-04-24T14:55:59;14.00;92.60
29939;DHT22;16799;50.844;5.304;2023-04-24T14:58:25;13.60;92.80
29939;DHT22;16799;50.844;5.304;2023-04-24T15:00:50;13.40;93.00
29939;DHT22;16799;50.844;5.304;2023-04-24T15:03:19;13.20;94.80
29939;DHT22;16799;50.844;5.304;2023-04-24T15:05:45;13.30;98.20
29939;DHT22;16799;50.844;5.304;2023-04-24T15:08:11;13.40;96.40
29939;DHT22;16799;50.844;5.304;2023-04-24T15:10:37;13.50;94.80
29939;DHT22;16799;50.844;5.304;2023-04-24T15:13:02;13.60;94.80
29939;DHT22;16799;50.844;5.304;2023-04-24T15:15:28;13.40;96.30
29939;DHT22;16799;50.844;5.304;2023-04-24T15:17:54;13.10;94.60
29939;DHT22;16799;50.844;5.304;2023-04-24T15:20:19;12.90;94.50
29939;DHT22;16799;50.844;5.304;2023-04-24T15:22:45;12.90;95.10
29939;DHT22;16799;50.844;5.304;2023-04-24T15:25:11;13.00;95.80
29939;DHT22;16799;50.844;5.304;2023-04-24T15:27:43;13.10;97.20
29939;DHT22;16799;50.844;5.304;2023-04-24T15:30:10;13.30;95.50
29939;DHT22;16799;50.844;5.304;2023-04-24T15:32:36;13.10;95.40
29939;DHT22;16799;50.844;5.304;2023-04-24T15:35:02;13.10;96.70
29939;DHT22;16799;50.844;5.304;2023-04-24T15:37:27;13.10;94.80
29939;DHT22;16799;50.844;5.304;2023-04-24T15:39:53;13.10;95.40
29939;DHT22;16799;50.844;5.304;2023-04-24T15:42:18;13.30;94.40
29939;DHT22;16799;50.844;5.304;2023-04-24T15:44:44;13.60;93.80
29939;DHT22;16799;50.844;5.304;2023-04-24T15:47:10;13.80;92.10
29939;DHT22;16799;50.844;5.304;2023-04-24T15:49:35;13.40;93.60
29939;DHT22;16799;50.844;5.304;2023-04-24T15:52:01;12.90;93.10
29939;DHT22;16799;50.844;5.304;2023-04-24T15:54:27;12.80;95.20
29939;DHT22;16799;50.844;5.304;2023-04-24T15:56:52;12.80;96.00
29939;DHT22;16799;50.844;5.304;2023-04-24T15:59:18;12.70;96.80